createdAt,value
2022-08-11T00:02:36.422Z,1.80
2022-08-11T00:05:09.987Z,2.20
2022-08-11T00:07:45.217Z,1.98
2022-08-11T00:10:18.119Z,1.83
2022-08-11T00:12:53.480Z,1.80
2022-08-11T00:15:23.066Z,1.52
2022-08-11T00:17:58.688Z,1.98
2022-08-11T00:20:32.703Z,2.03
2022-08-11T00:23:06.095Z,2.17
2022-08-11T00:25:41.597Z,1.92
2022-08-11T00:28:27.736Z,1.80
2022-08-11T00:30:59.433Z,1.90
2022-08-11T00:33:44.105Z,2.00
2022-08-11T00:36:18.910Z,2.03
2022-08-11T00:38:54.115Z,2.05
2022-08-11T00:41:33.908Z,2.42
2022-08-11T00:44:24.835Z,2.20
2022-08-11T00:47:03.502Z,2.20
2022-08-11T00:49:49.019Z,2.10
2022-08-11T00:52:34.617Z,2.13
2022-08-11T00:55:47.273Z,2.55
2022-08-11T00:58:58.996Z,2.15
2022-08-11T01:01:38.828Z,2.38
2022-08-11T01:04:53.695Z,2.97
2022-08-11T01:08:15.576Z,2.58
2022-08-11T01:11:00.532Z,2.63
2022-08-11T01:13:56.998Z,2.30
2022-08-11T01:17:05.608Z,2.30
2022-08-11T01:20:39.451Z,2.22
2022-08-11T01:23:36.277Z,2.05
2022-08-11T01:27:19.000Z,2.25
2022-08-11T01:30:19.725Z,2.28
2022-08-11T01:33:20.150Z,2.08
2022-08-11T01:36:28.175Z,2.45
2022-08-11T01:39:17.867Z,2.22
2022-08-11T01:42:24.497Z,2.20
2022-08-11T01:45:17.909Z,2.03
2022-08-11T01:47:54.498Z,2.47
2022-08-11T01:50:32.592Z,2.20
2022-08-11T01:53:11.975Z,2.53
2022-08-11T01:55:51.060Z,2.50
2022-08-11T01:58:43.621Z,2.30
2022-08-11T02:01:25.663Z,2.75
2022-08-11T02:03:59.759Z,2.50
2022-08-11T02:06:56.371Z,2.15
2022-08-11T02:09:49.376Z,2.17
2022-08-11T02:12:33.666Z,2.28
2022-08-11T02:17:55.440Z,2.60
2022-08-11T02:20:46.459Z,2.58
2022-08-11T02:24:05.955Z,2.45
2022-08-11T02:26:41.156Z,2.72
2022-08-11T02:29:18.161Z,2.50
2022-08-11T02:32:28.614Z,3.30
2022-08-11T02:35:09.712Z,5.30
2022-08-11T02:37:51.856Z,6.50
2022-08-11T02:40:32.433Z,6.93
2022-08-11T02:43:12.764Z,6.50
2022-08-11T02:45:55.024Z,8.02
2022-08-11T02:48:55.254Z,9.07
2022-08-11T02:51:41.797Z,9.50
2022-08-11T02:54:18.749Z,9.77
2022-08-11T02:56:54.251Z,9.70
2022-08-11T02:59:53.726Z,9.80
2022-08-11T03:02:49.922Z,9.38
2022-08-11T03:05:35.155Z,8.20
2022-08-11T03:08:20.270Z,6.97
2022-08-11T03:11:10.523Z,5.60
2022-08-11T03:14:02.499Z,5.28
2022-08-11T03:16:48.531Z,5.70
2022-08-11T03:19:26.926Z,5.85
2022-08-11T03:22:06.889Z,5.22
2022-08-11T03:24:48.226Z,4.78
2022-08-11T03:27:30.555Z,4.57
2022-08-11T03:30:09.547Z,4.50
2022-08-11T03:33:12.454Z,3.83
2022-08-11T03:35:45.594Z,4.05
2022-08-11T03:38:17.804Z,3.55
2022-08-11T03:42:01.418Z,3.58
2022-08-11T03:44:12.891Z,3.78
2022-08-11T03:47:08.166Z,4.63
2022-08-11T03:49:53.990Z,4.05
2022-08-11T03:52:29.873Z,3.72
2022-08-11T03:55:11.627Z,3.95
2022-08-11T03:58:19.084Z,3.90
2022-08-11T04:01:20.473Z,4.70
2022-08-11T04:04:29.480Z,4.22
2022-08-11T04:07:37.437Z,3.70
2022-08-11T04:10:33.294Z,3.80
2022-08-11T04:13:43.337Z,3.60
2022-08-11T04:16:24.680Z,3.17
2022-08-11T04:19:33.764Z,2.90
2022-08-11T04:22:35.275Z,2.33
2022-08-11T04:25:57.828Z,2.40
2022-08-11T04:29:01.148Z,2.28
2022-08-11T04:31:44.439Z,2.60
2022-08-11T04:34:58.528Z,2.67
2022-08-11T04:37:53.457Z,2.58
2022-08-11T04:40:51.344Z,2.15
2022-08-11T04:44:05.514Z,2.20
2022-08-11T04:46:58.833Z,1.77
2022-08-11T04:50:09.130Z,1.83
2022-08-11T04:53:39.928Z,2.25
2022-08-11T04:56:35.344Z,1.73
2022-08-11T04:59:49.797Z,2.10
2022-08-11T05:03:05.612Z,1.92
2022-08-11T05:05:57.206Z,2.00
2022-08-11T05:09:03.018Z,2.30
2022-08-11T05:12:01.989Z,2.25
2022-08-11T05:14:54.983Z,2.00
2022-08-11T05:17:46.518Z,1.88
2022-08-11T05:20:33.479Z,1.80
2022-08-11T05:23:24.323Z,2.15
2022-08-11T05:26:47.574Z,2.10
2022-08-11T05:29:44.719Z,2.13
2022-08-11T05:32:35.191Z,1.67
2022-08-11T05:35:07.654Z,2.30
2022-08-11T05:37:57.504Z,2.42
2022-08-11T05:40:51.101Z,2.33
2022-08-11T05:44:21.628Z,1.95
2022-08-11T05:46:58.302Z,2.35
2022-08-11T05:49:49.426Z,1.98
2022-08-11T05:52:41.753Z,1.80
2022-08-11T05:58:00.897Z,1.50
2022-08-11T06:00:30.661Z,1.90
2022-08-11T06:03:07.570Z,1.75
2022-08-11T06:05:43.405Z,1.40
2022-08-11T06:08:14.360Z,1.95
2022-08-11T06:10:45.676Z,1.80
2022-08-11T06:13:18.172Z,1.40
2022-08-11T06:15:48.836Z,1.45
2022-08-11T06:18:19.753Z,1.73
2022-08-11T06:20:50.501Z,1.48
2022-08-11T06:23:24.018Z,1.70
2022-08-11T06:25:56.301Z,1.67
2022-08-11T06:28:32.735Z,1.40
2022-08-11T06:31:03.800Z,1.52
2022-08-11T06:33:39.893Z,1.70
2022-08-11T06:36:15.832Z,1.48
2022-08-11T06:38:55.206Z,1.33
2022-08-11T06:41:33.299Z,1.13
2022-08-11T06:44:10.693Z,1.25
2022-08-11T06:46:42.237Z,1.55
2022-08-11T06:49:28.785Z,1.08
2022-08-11T06:52:01.743Z,1.30
2022-08-11T06:54:35.469Z,1.80
2022-08-11T06:57:29.919Z,1.27
2022-08-11T07:00:17.868Z,1.63
2022-08-11T07:02:53.468Z,1.83
2022-08-11T07:05:28.809Z,1.98
2022-08-11T07:08:44.542Z,1.42
2022-08-11T07:11:46.095Z,1.05
2022-08-11T07:14:47.791Z,1.90
2022-08-11T07:17:21.209Z,1.38
2022-08-11T07:20:12.672Z,2.15
2022-08-11T07:23:02.238Z,1.58
2022-08-11T07:25:50.706Z,1.63
2022-08-11T07:28:43.166Z,1.70
2022-08-11T07:31:16.109Z,1.40
2022-08-11T07:34:08.454Z,1.38
2022-08-11T07:36:41.787Z,1.60
2022-08-11T07:39:18.992Z,1.33
2022-08-11T07:41:50.254Z,1.30
2022-08-11T07:44:19.637Z,1.33
2022-08-11T07:47:08.593Z,1.27
2022-08-11T07:49:56.349Z,1.42
2022-08-11T07:52:30.642Z,3.15
2022-08-11T07:55:03.202Z,1.02
2022-08-11T07:58:14.722Z,1.30
2022-08-11T08:01:01.068Z,1.20
2022-08-11T08:03:54.215Z,1.20
2022-08-11T08:06:42.078Z,0.93
2022-08-11T08:09:28.936Z,1.05
2022-08-11T08:12:19.475Z,1.10
2022-08-11T08:15:06.303Z,1.05
2022-08-11T08:18:25.412Z,0.90
2022-08-11T08:20:50.108Z,0.95
2022-08-11T08:23:33.892Z,0.90
2022-08-11T08:26:27.269Z,0.93
2022-08-11T08:29:20.537Z,1.00
2022-08-11T08:31:49.842Z,1.13
2022-08-11T08:34:20.480Z,1.00
2022-08-11T08:36:51.511Z,0.80
2022-08-11T08:39:21.949Z,0.82
2022-08-11T08:41:54.479Z,1.85
2022-08-11T08:44:43.552Z,0.68
2022-08-11T08:47:41.750Z,0.90
2022-08-11T08:50:09.879Z,0.82
2022-08-11T08:52:51.597Z,0.80
2022-08-11T08:55:22.347Z,0.65
2022-08-11T08:57:54.033Z,0.80
2022-08-11T09:02:54.117Z,1.30
2022-08-11T09:05:26.150Z,0.60
2022-08-11T09:07:58.321Z,1.00
2022-08-11T09:10:30.547Z,0.60
2022-08-11T09:13:01.933Z,1.40
2022-08-11T09:18:06.261Z,0.70
2022-08-11T09:20:37.467Z,0.73
2022-08-11T09:24:07.339Z,0.55
2022-08-11T09:26:34.859Z,0.85
2022-08-11T09:29:04.758Z,0.80
2022-08-11T09:31:39.608Z,0.67
2022-08-11T09:34:10.360Z,0.60
2022-08-11T09:36:58.815Z,0.70
2022-08-11T09:39:47.262Z,0.60
2022-08-11T09:42:23.558Z,1.30
2022-08-11T09:44:53.501Z,1.10
2022-08-11T09:47:26.351Z,1.00
2022-08-11T09:50:00.937Z,0.90
2022-08-11T09:52:33.568Z,0.63
2022-08-11T09:55:05.235Z,1.00
2022-08-11T09:57:51.362Z,0.98
2022-08-11T10:00:21.882Z,0.73
2022-08-11T10:02:54.775Z,0.95
2022-08-11T10:05:42.159Z,1.67
2022-08-11T10:08:17.218Z,0.85
2022-08-11T10:10:48.512Z,0.90
2022-08-11T10:14:31.090Z,1.02
2022-08-11T10:16:15.940Z,1.00
2022-08-11T10:18:53.507Z,0.80
2022-08-11T10:21:30.232Z,0.80
2022-08-11T10:24:19.376Z,1.40
2022-08-11T10:26:55.779Z,0.98
2022-08-11T10:29:49.820Z,1.10
2022-08-11T10:32:46.393Z,0.88
2022-08-11T10:35:31.126Z,6.95
2022-08-11T10:38:08.222Z,0.70
2022-08-11T10:40:41.390Z,0.60
2022-08-11T10:46:30.167Z,0.50
2022-08-11T10:49:00.357Z,0.60
2022-08-11T10:51:52.133Z,0.68
2022-08-11T10:54:41.198Z,0.70
2022-08-11T10:57:28.398Z,0.73
2022-08-11T10:59:58.381Z,0.63
2022-08-11T11:02:28.848Z,1.23
2022-08-11T11:05:09.487Z,0.82
2022-08-11T11:07:44.795Z,0.45
2022-08-11T11:10:14.088Z,0.40
2022-08-11T11:13:03.399Z,0.60
2022-08-11T11:15:53.806Z,0.75
2022-08-11T11:18:25.385Z,0.52
2022-08-11T11:20:58.869Z,0.35
2022-08-11T11:23:35.367Z,0.50
2022-08-11T11:26:29.159Z,0.70
2022-08-11T11:29:28.321Z,0.80
2022-08-11T11:32:31.346Z,0.65
2022-08-11T11:35:19.484Z,0.60
2022-08-11T11:38:00.954Z,0.88
2022-08-11T11:40:37.653Z,1.08
2022-08-11T11:43:07.177Z,1.00
2022-08-11T11:45:37.673Z,0.85
2022-08-11T11:48:07.751Z,0.65
2022-08-11T11:50:39.412Z,0.90
2022-08-11T11:53:11.198Z,0.80
2022-08-11T11:55:44.375Z,0.70
2022-08-11T11:58:32.129Z,0.90
2022-08-11T12:01:20.297Z,0.90
2022-08-11T12:03:52.877Z,0.80
2022-08-11T12:06:25.490Z,0.90
2022-08-11T12:08:56.749Z,1.10
2022-08-11T12:11:45.843Z,1.00
2022-08-11T12:14:18.534Z,0.80
2022-08-11T12:16:49.020Z,1.80
2022-08-11T12:19:21.642Z,1.13
2022-08-11T12:22:08.781Z,1.00
2022-08-11T12:24:56.942Z,0.80
2022-08-11T12:27:33.566Z,0.90
2022-08-11T12:30:09.875Z,1.08
2022-08-11T12:32:41.360Z,0.93
2022-08-11T12:35:11.619Z,1.00
2022-08-11T12:37:43.818Z,1.55
2022-08-11T12:40:42.907Z,0.80
2022-08-11T12:43:56.696Z,1.10
2022-08-11T12:46:32.186Z,0.75
2022-08-11T12:49:24.839Z,0.80
2022-08-11T12:52:13.965Z,0.50
2022-08-11T12:54:52.382Z,0.98
2022-08-11T12:57:42.106Z,0.95
2022-08-11T13:00:31.300Z,0.70
2022-08-11T13:03:18.190Z,0.70
2022-08-11T13:05:49.927Z,0.93
2022-08-11T13:08:19.586Z,0.73
2022-08-11T13:11:08.644Z,0.73
2022-08-11T13:13:54.340Z,0.68
2022-08-11T13:16:30.615Z,0.73
2022-08-11T13:19:01.598Z,1.65
2022-08-11T13:21:31.398Z,0.60
2022-08-11T13:24:03.495Z,0.60
2022-08-11T13:26:43.363Z,0.93
2022-08-11T13:29:20.186Z,0.80
2022-08-11T13:31:51.178Z,0.85
2022-08-11T13:34:21.762Z,0.50
2022-08-11T13:36:53.339Z,0.82
2022-08-11T13:39:24.644Z,1.20
2022-08-11T13:42:03.656Z,1.40
2022-08-11T13:44:47.196Z,1.55
2022-08-11T13:47:18.315Z,1.00
2022-08-11T13:49:48.205Z,0.90
2022-08-11T13:52:18.066Z,0.77
2022-08-11T13:54:49.587Z,0.77
2022-08-11T13:58:08.981Z,0.47
2022-08-11T14:00:27.642Z,0.68
2022-08-11T14:02:59.755Z,0.80
2022-08-11T14:05:30.838Z,0.60
2022-08-11T14:08:03.573Z,0.70
2022-08-11T14:10:39.507Z,0.98
2022-08-11T14:13:42.290Z,0.70
2022-08-11T14:16:21.631Z,0.63
2022-08-11T14:18:56.401Z,0.52
2022-08-11T14:21:44.630Z,0.90
2022-08-11T14:24:13.940Z,0.80
2022-08-11T14:26:44.650Z,0.80
2022-08-11T14:29:15.751Z,1.20
2022-08-11T14:31:49.647Z,0.50
2022-08-11T14:34:22.705Z,0.73
2022-08-11T14:36:54.194Z,1.10
2022-08-11T14:39:26.035Z,0.77
2022-08-11T14:42:14.962Z,0.98
2022-08-11T14:45:18.556Z,0.63
2022-08-11T14:47:52.536Z,0.90
2022-08-11T14:50:24.964Z,0.60
2022-08-11T14:52:56.802Z,0.60
2022-08-11T14:55:46.215Z,0.98
2022-08-11T14:58:18.221Z,0.90
2022-08-11T15:00:48.108Z,0.85
2022-08-11T15:03:17.825Z,0.98
2022-08-11T15:05:54.211Z,0.88
2022-08-11T15:08:54.910Z,1.20
2022-08-11T15:11:43.731Z,0.98
2022-08-11T15:14:13.949Z,0.70
2022-08-11T15:17:02.759Z,1.20
2022-08-11T15:19:40.300Z,1.20
2022-08-11T15:22:29.292Z,1.08
2022-08-11T15:25:00.309Z,0.95
2022-08-11T15:27:49.993Z,1.00
2022-08-11T15:30:36.662Z,0.98
2022-08-11T15:33:25.860Z,0.90
2022-08-11T15:36:29.130Z,0.75
2022-08-11T15:39:02.692Z,0.90
2022-08-11T15:41:58.506Z,0.90
2022-08-11T15:45:06.049Z,0.90
2022-08-11T15:47:41.625Z,0.70
2022-08-11T15:50:16.032Z,0.93
2022-08-11T15:52:54.145Z,1.10
2022-08-11T15:55:27.299Z,1.02
2022-08-11T15:58:21.735Z,1.02
2022-08-11T16:01:13.132Z,0.90
2022-08-11T16:04:09.169Z,1.10
2022-08-11T16:06:47.819Z,1.95
2022-08-11T16:09:25.210Z,1.20
2022-08-11T16:12:03.215Z,1.25
2022-08-11T16:14:55.415Z,0.95
2022-08-11T16:17:30.732Z,1.05
2022-08-11T16:20:01.747Z,1.67
2022-08-11T16:22:38.442Z,1.10
2022-08-11T16:27:01.455Z,0.95
2022-08-11T16:28:13.985Z,0.85
2022-08-11T16:30:47.032Z,1.30
2022-08-11T16:33:47.947Z,0.75
2022-08-11T16:36:25.461Z,0.98
2022-08-11T16:38:57.867Z,0.73
2022-08-11T16:41:47.933Z,0.90
2022-08-11T16:44:38.289Z,0.65
2022-08-11T16:47:09.698Z,0.85
2022-08-11T16:49:50.612Z,0.98
2022-08-11T16:52:25.942Z,1.25
2022-08-11T16:54:55.204Z,1.40
2022-08-11T16:57:45.862Z,1.10
2022-08-11T17:00:19.655Z,1.42
2022-08-11T17:03:09.892Z,0.98
2022-08-11T17:06:02.150Z,0.73
2022-08-11T17:08:56.908Z,0.90
2022-08-11T17:11:46.685Z,0.80
2022-08-11T17:14:35.427Z,0.75
2022-08-11T17:17:12.841Z,0.80
2022-08-11T17:20:40.287Z,0.75
2022-08-11T17:22:59.889Z,0.75
2022-08-11T17:25:59.599Z,0.60
2022-08-11T17:28:24.435Z,0.97
2022-08-11T17:31:19.916Z,0.60
2022-08-11T17:34:11.540Z,0.63
2022-08-11T17:36:45.744Z,1.10
2022-08-11T17:39:16.783Z,0.90
2022-08-11T17:42:04.465Z,0.90
2022-08-11T17:44:53.707Z,0.70
2022-08-11T17:47:40.571Z,0.80
2022-08-11T17:50:17.008Z,0.60
2022-08-11T17:53:05.530Z,1.08
2022-08-11T17:55:54.961Z,1.23
2022-08-11T17:58:43.499Z,1.92
2022-08-11T18:01:13.180Z,1.90
2022-08-11T18:03:53.212Z,1.83
2022-08-11T18:06:34.513Z,1.73
2022-08-11T18:09:27.215Z,1.40
2022-08-11T18:12:16.369Z,1.50
2022-08-11T18:15:07.595Z,1.60
2022-08-11T18:17:54.616Z,1.33
2022-08-11T18:20:42.195Z,1.38
2022-08-11T18:23:46.342Z,1.30
2022-08-11T18:26:39.515Z,1.48
2022-08-11T18:29:27.636Z,1.60
2022-08-11T18:32:22.155Z,1.38
2022-08-11T18:35:13.900Z,1.30
2022-08-11T18:38:06.472Z,1.25
2022-08-11T18:40:56.329Z,1.55
2022-08-11T18:43:46.533Z,1.42
2022-08-11T18:46:36.998Z,1.73
2022-08-11T18:49:33.140Z,1.52
2022-08-11T18:52:36.569Z,1.45
2022-08-11T18:55:28.942Z,1.33
2022-08-11T18:58:21.925Z,1.80
2022-08-11T19:01:10.323Z,1.60
2022-08-11T19:03:56.976Z,1.40
2022-08-11T19:06:58.785Z,1.30
2022-08-11T19:09:47.507Z,1.70
2022-08-11T19:12:34.108Z,1.60
2022-08-11T19:15:23.785Z,1.33
2022-08-11T19:18:12.222Z,1.50
2022-08-11T19:21:01.510Z,1.70
2022-08-11T19:23:52.632Z,1.33
2022-08-11T19:26:40.288Z,1.30
2022-08-11T19:30:07.415Z,1.35
2022-08-11T19:32:35.605Z,1.42
2022-08-11T19:35:23.119Z,1.60
2022-08-11T19:38:11.274Z,1.10
2022-08-11T19:40:58.807Z,1.77
2022-08-11T19:43:49.409Z,1.23
2022-08-11T19:46:38.624Z,1.52
2022-08-11T19:49:28.418Z,1.10
2022-08-11T19:52:16.301Z,1.20
2022-08-11T19:55:03.409Z,1.17
2022-08-11T19:57:51.177Z,1.30
2022-08-11T20:00:40.249Z,1.23
2022-08-11T20:03:28.486Z,0.90
2022-08-11T20:06:19.480Z,0.95
2022-08-11T20:09:08.156Z,1.30
2022-08-11T20:11:58.537Z,0.88
2022-08-11T20:14:48.982Z,1.17
2022-08-11T20:17:36.572Z,0.90
2022-08-11T20:20:26.216Z,1.23
2022-08-11T20:23:18.341Z,1.50
2022-08-11T20:26:29.679Z,1.40
2022-08-11T20:29:14.608Z,1.10
2022-08-11T20:32:01.693Z,1.30
2022-08-11T20:34:55.177Z,1.00
2022-08-11T20:37:42.308Z,1.10
2022-08-11T20:40:30.853Z,1.35
2022-08-11T20:44:06.001Z,1.17
2022-08-11T20:46:25.829Z,1.10
2022-08-11T20:49:14.289Z,1.20
2022-08-11T20:52:06.003Z,1.38
2022-08-11T20:54:53.571Z,1.30
2022-08-11T20:58:03.797Z,1.02
2022-08-11T21:00:49.793Z,1.38
2022-08-11T21:03:52.303Z,1.23
2022-08-11T21:06:45.359Z,1.33
2022-08-11T21:09:58.806Z,1.20
2022-08-11T21:12:42.589Z,1.10
2022-08-11T21:15:47.069Z,1.60
2022-08-11T21:18:36.485Z,1.30
2022-08-11T21:21:26.628Z,1.15
2022-08-11T21:24:15.740Z,0.93
2022-08-11T21:27:05.420Z,1.10
2022-08-11T21:29:56.276Z,1.00
2022-08-11T21:32:45.182Z,1.20
2022-08-11T21:35:31.451Z,1.00
2022-08-11T21:38:20.307Z,1.15
2022-08-11T21:41:10.340Z,1.20
2022-08-11T21:43:59.378Z,1.38
2022-08-11T21:46:48.713Z,0.82
2022-08-11T21:49:37.285Z,1.23
2022-08-11T21:52:24.013Z,1.45
2022-08-11T21:55:12.309Z,1.10
2022-08-11T21:58:02.513Z,0.98
2022-08-11T22:00:49.216Z,1.20
2022-08-11T22:03:49.324Z,1.25
2022-08-11T22:06:37.655Z,1.20
2022-08-11T22:09:23.943Z,1.08
2022-08-11T22:12:35.196Z,1.38
2022-08-11T22:15:16.892Z,1.27
2022-08-11T22:18:03.605Z,1.08
2022-08-11T22:20:52.142Z,1.13
2022-08-11T22:23:39.750Z,1.40
2022-08-11T22:26:28.036Z,1.40
2022-08-11T22:29:14.508Z,1.58
2022-08-11T22:32:01.296Z,1.20
2022-08-11T22:34:53.409Z,1.17
2022-08-11T22:37:43.050Z,1.00
2022-08-11T22:40:30.705Z,1.40
2022-08-11T22:43:17.639Z,1.20
2022-08-11T22:46:04.212Z,1.00
2022-08-11T22:48:52.221Z,1.27
2022-08-11T22:51:40.000Z,1.35
2022-08-11T22:54:28.642Z,1.23
2022-08-11T22:57:18.498Z,1.50
2022-08-11T23:00:05.628Z,1.40
2022-08-11T23:02:55.154Z,1.23
2022-08-11T23:05:43.261Z,1.33
2022-08-11T23:08:29.940Z,1.25
2022-08-11T23:11:19.427Z,1.00
2022-08-11T23:14:06.895Z,1.20
2022-08-11T23:16:53.535Z,1.30
2022-08-11T23:20:01.593Z,1.42
2022-08-11T23:22:56.907Z,0.88
2022-08-11T23:25:46.087Z,1.25
2022-08-11T23:28:35.240Z,1.38
2022-08-11T23:31:23.146Z,1.25
2022-08-11T23:34:37.040Z,1.25
2022-08-11T23:37:22.533Z,1.40
2022-08-11T23:40:09.495Z,1.40
2022-08-11T23:42:56.375Z,1.25
2022-08-11T23:45:45.110Z,1.00
2022-08-11T23:48:34.451Z,1.25
2022-08-11T23:51:22.458Z,1.25
2022-08-11T23:54:09.217Z,1.20
2022-08-11T23:56:55.956Z,1.50
2022-08-11T23:59:43.330Z,1.17
